createdAt,value
2019-04-28T00:01:06.472Z,12.10
2019-04-28T00:02:13.303Z,16.27
2019-04-28T00:03:18.292Z,16.20
2019-04-28T00:04:23.711Z,17.00
2019-04-28T00:05:28.609Z,13.03
2019-04-28T00:06:34.154Z,21.60
2019-04-28T00:07:41.092Z,15.23
2019-04-28T00:08:46.157Z,19.57
2019-04-28T00:09:51.482Z,20.10
2019-04-28T00:10:57.076Z,18.85
2019-04-28T00:12:02.467Z,19.60
2019-04-28T00:13:07.714Z,23.67
2019-04-28T00:14:17.151Z,18.25
2019-04-28T00:15:22.284Z,16.67
2019-04-28T00:16:27.443Z,23.10
2019-04-28T00:17:32.985Z,19.42
2019-04-28T00:18:38.494Z,21.20
2019-04-28T00:19:43.628Z,26.12
2019-04-28T00:21:16.637Z,22.55
2019-04-28T00:22:43.279Z,18.85
2019-04-28T00:24:16.317Z,10.93
2019-04-28T00:25:24.750Z,19.80
2019-04-28T00:26:43.013Z,18.15
2019-04-28T00:27:48.103Z,12.55
2019-04-28T00:28:53.515Z,14.23
2019-04-28T00:29:58.797Z,14.55
2019-04-28T00:31:04.201Z,21.45
2019-04-28T00:32:13.260Z,21.35
2019-04-28T00:33:18.523Z,26.30
2019-04-28T00:34:23.829Z,17.48
2019-04-28T00:35:28.886Z,22.55
2019-04-28T00:36:34.146Z,18.00
2019-04-28T00:37:41.788Z,16.55
2019-04-28T00:38:46.769Z,17.87
2019-04-28T00:39:52.255Z,18.17
2019-04-28T00:40:57.710Z,16.93
2019-04-28T00:42:03.322Z,11.18
2019-04-28T00:43:10.380Z,16.73
2019-04-28T00:44:16.323Z,18.12
2019-04-28T00:45:21.580Z,23.27
2019-04-28T00:46:31.285Z,17.50
2019-04-28T00:47:36.558Z,20.50
2019-04-28T00:48:41.616Z,17.30
2019-04-28T00:49:46.733Z,18.42
2019-04-28T00:50:51.973Z,14.68
2019-04-28T00:51:57.722Z,18.25
2019-04-28T00:53:02.824Z,13.38
2019-04-28T00:54:07.890Z,14.93
2019-04-28T00:55:13.188Z,13.40
2019-04-28T00:56:18.198Z,16.32
2019-04-28T00:57:23.814Z,17.95
2019-04-28T00:58:28.982Z,18.90
2019-04-28T00:59:34.041Z,19.75
2019-04-28T01:00:41.467Z,17.23
2019-04-28T01:01:56.045Z,14.45
2019-04-28T01:03:02.162Z,16.40
2019-04-28T01:04:07.560Z,13.60
2019-04-28T01:05:12.808Z,18.50
2019-04-28T01:06:17.945Z,24.05
2019-04-28T01:07:23.064Z,13.40
2019-04-28T01:08:28.403Z,17.73
2019-04-28T01:09:33.565Z,15.93
2019-04-28T01:10:38.691Z,18.17
2019-04-28T01:11:43.776Z,19.17
2019-04-28T01:12:50.869Z,19.42
2019-04-28T01:13:55.639Z,23.02
2019-04-28T01:15:04.539Z,20.60
2019-04-28T01:16:13.960Z,20.60
2019-04-28T01:17:50.252Z,19.95
2019-04-28T01:19:00.157Z,18.80
2019-04-28T01:20:06.948Z,13.30
2019-04-28T01:21:12.057Z,13.40
2019-04-28T01:22:20.147Z,15.20
2019-04-28T01:23:25.176Z,18.85
2019-04-28T01:24:30.268Z,14.83
2019-04-28T01:25:35.553Z,14.50
2019-04-28T01:26:41.653Z,16.73
2019-04-28T01:27:50.785Z,17.98
2019-04-28T01:28:55.856Z,14.47
2019-04-28T01:30:07.997Z,19.50
2019-04-28T01:31:34.797Z,14.98
2019-04-28T01:32:45.652Z,23.70
2019-04-28T01:34:10.313Z,17.42
2019-04-28T01:35:15.618Z,22.80
2019-04-28T01:36:20.744Z,21.62
2019-04-28T01:37:26.110Z,15.55
2019-04-28T01:38:31.299Z,19.30
2019-04-28T01:39:36.393Z,18.05
2019-04-28T01:40:41.598Z,20.17
2019-04-28T01:41:46.571Z,22.42
2019-04-28T01:42:51.573Z,16.12
2019-04-28T01:43:56.729Z,14.63
2019-04-28T01:45:02.015Z,15.13
2019-04-28T01:46:07.055Z,13.50
2019-04-28T01:47:12.246Z,26.40
2019-04-28T01:48:17.521Z,19.65
2019-04-28T01:49:23.122Z,18.55
2019-04-28T01:50:29.950Z,18.32
2019-04-28T01:51:36.221Z,19.92
2019-04-28T01:52:41.327Z,22.70
2019-04-28T01:53:46.745Z,17.92
2019-04-28T01:54:51.801Z,17.02
2019-04-28T01:55:57.142Z,11.00
2019-04-28T01:57:02.327Z,16.27
2019-04-28T01:58:07.332Z,11.65
2019-04-28T01:59:12.377Z,18.32
2019-04-28T02:00:25.156Z,15.03
2019-04-28T02:01:25.874Z,20.95
2019-04-28T02:02:30.999Z,32.73
2019-04-28T02:03:36.045Z,13.68
2019-04-28T02:04:41.133Z,15.18
2019-04-28T02:05:46.383Z,22.10
2019-04-28T02:06:52.929Z,10.05
2019-04-28T02:07:58.087Z,13.48
2019-04-28T02:09:03.125Z,20.12
2019-04-28T02:10:10.156Z,10.60
2019-04-28T02:11:15.050Z,19.48
2019-04-28T02:12:20.425Z,14.07
2019-04-28T02:13:25.551Z,16.48
2019-04-28T02:14:30.951Z,13.48
2019-04-28T02:15:36.509Z,11.55
2019-04-28T02:16:41.562Z,14.90
2019-04-28T02:17:46.665Z,15.90
2019-04-28T02:18:51.922Z,12.05
2019-04-28T02:19:57.130Z,24.30
2019-04-28T02:21:27.390Z,13.45
2019-04-28T02:22:37.309Z,19.07
2019-04-28T02:23:42.358Z,24.75
2019-04-28T02:24:47.326Z,18.05
2019-04-28T02:25:52.336Z,19.27
2019-04-28T02:26:57.631Z,17.15
2019-04-28T02:28:02.750Z,15.50
2019-04-28T02:29:07.990Z,13.70
2019-04-28T02:30:13.267Z,14.63
2019-04-28T02:31:21.516Z,19.90
2019-04-28T02:32:25.236Z,14.98
2019-04-28T02:33:31.269Z,16.85
2019-04-28T02:34:36.537Z,16.65
2019-04-28T02:35:42.250Z,15.10
2019-04-28T02:36:47.450Z,16.32
2019-04-28T02:37:52.780Z,14.83
2019-04-28T02:38:57.793Z,18.57
2019-04-28T02:40:03.490Z,15.45
2019-04-28T02:41:11.078Z,19.35
2019-04-28T02:42:15.653Z,30.00
2019-04-28T02:43:21.109Z,13.03
2019-04-28T02:44:30.691Z,12.15
2019-04-28T02:45:36.221Z,18.48
2019-04-28T02:46:42.205Z,11.60
2019-04-28T02:47:47.561Z,20.50
2019-04-28T02:48:54.014Z,14.43
2019-04-28T02:50:04.568Z,17.67
2019-04-28T02:51:17.101Z,15.25
2019-04-28T02:52:41.472Z,19.12
2019-04-28T02:53:51.143Z,21.90
2019-04-28T02:54:55.650Z,15.65
2019-04-28T02:56:01.106Z,13.22
2019-04-28T02:57:06.245Z,23.22
2019-04-28T02:58:13.363Z,17.42
2019-04-28T02:59:20.891Z,12.63
2019-04-28T03:00:25.320Z,21.73
2019-04-28T03:01:30.952Z,19.45
2019-04-28T03:02:36.411Z,20.40
2019-04-28T03:03:41.491Z,12.82
2019-04-28T03:04:47.078Z,11.53
2019-04-28T03:05:52.167Z,17.67
2019-04-28T03:06:57.609Z,11.12
2019-04-28T03:08:03.017Z,19.60
2019-04-28T03:09:10.589Z,18.10
2019-04-28T03:10:15.179Z,18.98
2019-04-28T03:11:20.585Z,9.13
2019-04-28T03:12:26.253Z,25.25
2019-04-28T03:13:31.501Z,17.42
2019-04-28T03:14:36.522Z,17.07
2019-04-28T03:15:42.072Z,16.05
2019-04-28T03:16:47.341Z,21.80
2019-04-28T03:17:53.202Z,20.75
2019-04-28T03:19:01.123Z,19.77
2019-04-28T03:20:05.921Z,15.28
2019-04-28T03:21:11.530Z,14.93
2019-04-28T03:22:16.975Z,8.55
2019-04-28T03:23:22.096Z,18.12
2019-04-28T03:24:27.360Z,8.73
2019-04-28T03:26:11.165Z,12.93
2019-04-28T03:27:26.164Z,17.25
2019-04-28T03:28:51.402Z,15.40
2019-04-28T03:30:00.905Z,21.15
2019-04-28T03:32:07.279Z,23.98
2019-04-28T03:32:52.511Z,19.15
2019-04-28T03:33:53.767Z,12.53
2019-04-28T03:34:55.043Z,19.32
2019-04-28T03:36:07.892Z,15.80
2019-04-28T03:37:11.289Z,12.68
2019-04-28T03:38:16.639Z,13.28
2019-04-28T03:39:21.832Z,19.70
2019-04-28T03:40:26.988Z,17.45
2019-04-28T03:41:32.145Z,14.53
2019-04-28T03:42:37.234Z,14.95
2019-04-28T03:43:42.616Z,18.23
2019-04-28T03:44:47.746Z,21.87
2019-04-28T03:46:02.696Z,16.07
2019-04-28T03:47:04.803Z,15.50
2019-04-28T03:48:11.439Z,15.63
2019-04-28T03:49:31.957Z,14.75
2019-04-28T03:50:36.978Z,13.40
2019-04-28T03:51:42.262Z,17.07
2019-04-28T03:52:47.279Z,16.37
2019-04-28T03:53:52.230Z,15.68
2019-04-28T03:54:57.278Z,23.83
2019-04-28T03:56:02.304Z,15.48
2019-04-28T03:57:07.460Z,20.92
2019-04-28T03:58:12.736Z,14.30
2019-04-28T03:59:17.968Z,13.45
2019-04-28T04:00:22.943Z,10.65
2019-04-28T04:01:30.324Z,18.20
2019-04-28T04:02:35.020Z,18.02
2019-04-28T04:03:41.682Z,13.20
2019-04-28T04:04:46.820Z,20.00
2019-04-28T04:05:51.899Z,17.17
2019-04-28T04:06:57.061Z,22.15
2019-04-28T04:08:02.108Z,21.68
2019-04-28T04:09:07.409Z,9.18
2019-04-28T04:10:40.352Z,21.85
2019-04-28T04:12:00.386Z,16.25
2019-04-28T04:13:14.925Z,17.98
2019-04-28T04:14:51.061Z,17.17
2019-04-28T04:16:04.316Z,10.98
2019-04-28T04:17:16.260Z,15.98
2019-04-28T04:18:41.023Z,15.88
2019-04-28T04:19:46.078Z,20.60
2019-04-28T04:20:51.500Z,32.45
2019-04-28T04:21:56.433Z,28.83
2019-04-28T04:23:02.084Z,18.82
2019-04-28T04:24:07.221Z,26.85
2019-04-28T04:25:12.830Z,34.92
2019-04-28T04:26:20.513Z,30.92
2019-04-28T04:27:25.104Z,34.33
2019-04-28T04:28:30.487Z,18.65
2019-04-28T04:29:35.587Z,21.42
2019-04-28T04:30:41.130Z,25.15
2019-04-28T04:31:46.150Z,20.68
2019-04-28T04:32:51.341Z,26.30
2019-04-28T04:33:56.388Z,12.50
2019-04-28T04:35:01.432Z,17.30
2019-04-28T04:36:06.596Z,14.85
2019-04-28T04:37:12.594Z,19.32
2019-04-28T04:38:17.702Z,15.85
2019-04-28T04:39:23.123Z,15.70
2019-04-28T04:40:31.333Z,13.40
2019-04-28T04:41:35.155Z,15.75
2019-04-28T04:42:40.593Z,14.85
2019-04-28T04:43:45.539Z,12.55
2019-04-28T04:44:50.506Z,16.45
2019-04-28T04:46:16.995Z,18.62
2019-04-28T04:47:22.061Z,13.48
2019-04-28T04:48:27.355Z,16.75
2019-04-28T04:49:32.501Z,11.80
2019-04-28T04:50:37.659Z,11.97
2019-04-28T04:51:43.932Z,11.83
2019-04-28T04:52:50.152Z,9.68
2019-04-28T04:53:55.646Z,16.50
2019-04-28T04:55:01.405Z,17.27
2019-04-28T04:56:06.602Z,14.00
2019-04-28T04:57:11.673Z,16.70
2019-04-28T04:58:16.914Z,13.75
2019-04-28T04:59:22.400Z,14.98
2019-04-28T05:00:43.988Z,12.82
2019-04-28T05:02:02.006Z,7.45
2019-04-28T05:03:11.098Z,24.82
2019-04-28T05:04:31.475Z,14.55
2019-04-28T05:05:40.836Z,19.07
2019-04-28T05:06:45.877Z,14.43
2019-04-28T05:07:51.042Z,11.75
2019-04-28T05:08:56.148Z,10.82
2019-04-28T05:10:01.310Z,10.03
2019-04-28T05:11:06.332Z,23.45
2019-04-28T05:12:11.566Z,13.78
2019-04-28T05:13:16.808Z,26.07
2019-04-28T05:14:21.807Z,18.40
2019-04-28T05:15:26.760Z,19.90
2019-04-28T05:16:31.855Z,17.23
2019-04-28T05:17:36.823Z,11.28
2019-04-28T05:18:41.898Z,10.18
2019-04-28T05:19:47.230Z,25.35
2019-04-28T05:20:52.322Z,14.23
2019-04-28T05:21:57.599Z,18.80
2019-04-28T05:23:09.661Z,11.10
2019-04-28T05:24:46.317Z,12.28
2019-04-28T05:25:49.907Z,22.60
2019-04-28T05:26:54.954Z,14.87
2019-04-28T05:28:02.908Z,16.10
2019-04-28T05:29:06.887Z,14.95
2019-04-28T05:30:13.963Z,19.73
2019-04-28T05:31:23.016Z,18.25
2019-04-28T05:32:39.378Z,17.35
2019-04-28T05:33:34.041Z,11.08
2019-04-28T05:34:46.393Z,18.73
2019-04-28T05:35:46.150Z,19.10
2019-04-28T05:36:51.290Z,16.52
2019-04-28T05:37:56.287Z,12.95
2019-04-28T05:39:01.285Z,13.75
2019-04-28T05:40:06.580Z,13.28
2019-04-28T05:41:11.617Z,21.17
2019-04-28T05:42:16.777Z,12.63
2019-04-28T05:43:22.360Z,15.60
2019-04-28T05:44:27.425Z,15.60
2019-04-28T05:45:32.604Z,17.07
2019-04-28T05:46:37.698Z,15.20
2019-04-28T05:47:43.249Z,13.08
2019-04-28T05:49:11.729Z,13.13
2019-04-28T05:50:23.133Z,18.15
2019-04-28T05:51:29.940Z,22.25
2019-04-28T05:53:00.662Z,9.65
2019-04-28T05:54:13.120Z,7.67
2019-04-28T05:55:21.054Z,16.45
2019-04-28T05:56:31.217Z,16.97
2019-04-28T05:57:40.742Z,13.90
2019-04-28T05:58:51.554Z,18.07
2019-04-28T06:00:03.551Z,18.70
2019-04-28T06:01:36.808Z,20.60
2019-04-28T06:02:54.118Z,18.87
2019-04-28T06:03:51.281Z,14.10
2019-04-28T06:04:56.369Z,16.15
2019-04-28T06:06:01.490Z,17.30
2019-04-28T06:07:14.162Z,23.77
2019-04-28T06:08:28.298Z,19.70
2019-04-28T06:09:39.884Z,16.27
2019-04-28T06:10:45.095Z,24.30
2019-04-28T06:11:50.135Z,11.48
2019-04-28T06:12:55.138Z,22.98
2019-04-28T06:14:00.654Z,14.33
2019-04-28T06:15:06.104Z,18.00
2019-04-28T06:16:11.052Z,13.70
2019-04-28T06:17:16.080Z,14.90
2019-04-28T06:18:21.087Z,12.53
2019-04-28T06:19:26.075Z,11.65
2019-04-28T06:20:31.012Z,13.28
2019-04-28T06:21:36.051Z,13.05
2019-04-28T06:22:41.069Z,14.45
2019-04-28T06:23:46.143Z,13.62
2019-04-28T06:24:51.273Z,10.08
2019-04-28T06:25:56.592Z,15.93
2019-04-28T06:27:01.629Z,15.08
2019-04-28T06:28:06.747Z,14.07
2019-04-28T06:29:11.759Z,13.65
2019-04-28T06:30:17.091Z,16.37
2019-04-28T06:31:23.228Z,12.10
2019-04-28T06:32:28.826Z,10.63
2019-04-28T06:33:34.074Z,10.70
2019-04-28T06:34:39.157Z,10.72
2019-04-28T06:35:44.554Z,23.27
2019-04-28T06:36:52.021Z,11.93
2019-04-28T06:37:57.348Z,14.80
2019-04-28T06:39:03.819Z,15.13
2019-04-28T06:40:09.078Z,12.78
2019-04-28T06:41:14.218Z,16.50
2019-04-28T06:42:19.564Z,17.75
2019-04-28T06:43:25.145Z,14.68
2019-04-28T06:44:30.280Z,17.37
2019-04-28T06:45:35.210Z,14.85
2019-04-28T06:46:40.426Z,13.38
2019-04-28T06:47:45.498Z,15.65
2019-04-28T06:48:50.587Z,18.00
2019-04-28T06:49:55.611Z,27.37
2019-04-28T06:51:00.809Z,13.53
2019-04-28T06:52:05.838Z,13.83
2019-04-28T06:53:10.792Z,17.23
2019-04-28T06:54:15.781Z,14.00
2019-04-28T06:55:21.394Z,18.82
2019-04-28T06:56:26.477Z,12.07
2019-04-28T06:57:31.584Z,19.45
2019-04-28T06:58:36.782Z,12.45
2019-04-28T06:59:42.272Z,12.00
2019-04-28T07:00:47.373Z,20.48
2019-04-28T07:01:52.465Z,12.30
2019-04-28T07:02:57.815Z,11.63
2019-04-28T07:04:03.170Z,9.58
2019-04-28T07:05:08.953Z,10.68
2019-04-28T07:06:14.057Z,10.85
2019-04-28T07:07:19.207Z,13.80
2019-04-28T07:08:24.288Z,11.43
2019-04-28T07:09:29.430Z,18.15
2019-04-28T07:10:34.791Z,15.45
2019-04-28T07:11:40.255Z,15.28
2019-04-28T07:12:45.351Z,12.73
2019-04-28T07:13:50.713Z,19.17
2019-04-28T07:14:55.846Z,23.20
2019-04-28T07:16:01.151Z,16.48
2019-04-28T07:17:06.335Z,22.27
2019-04-28T07:18:11.387Z,12.07
2019-04-28T07:19:16.480Z,12.75
2019-04-28T07:20:49.825Z,17.10
2019-04-28T07:22:19.716Z,14.10
2019-04-28T07:23:24.810Z,12.78
2019-04-28T07:24:29.765Z,9.35
2019-04-28T07:25:34.762Z,14.07
2019-04-28T07:26:39.811Z,21.07
2019-04-28T07:27:44.943Z,12.05
2019-04-28T07:28:49.995Z,10.65
2019-04-28T07:29:55.483Z,16.97
2019-04-28T07:31:01.049Z,8.43
2019-04-28T07:32:06.415Z,12.53
2019-04-28T07:33:11.469Z,10.95
2019-04-28T07:34:16.908Z,12.35
2019-04-28T07:35:22.137Z,10.58
2019-04-28T07:36:27.595Z,14.83
2019-04-28T07:37:32.809Z,11.75
2019-04-28T07:38:38.227Z,9.48
2019-04-28T07:39:43.536Z,17.73
2019-04-28T07:40:48.607Z,7.85
2019-04-28T07:41:53.675Z,13.75
2019-04-28T07:42:58.657Z,19.70
2019-04-28T07:44:03.771Z,13.75
2019-04-28T07:45:09.236Z,18.70
2019-04-28T07:46:14.651Z,14.40
2019-04-28T07:47:20.273Z,13.95
2019-04-28T07:48:25.647Z,16.05
2019-04-28T07:49:30.568Z,11.50
2019-04-28T07:50:35.625Z,12.88
2019-04-28T07:51:54.249Z,10.60
2019-04-28T07:53:05.947Z,9.25
2019-04-28T07:54:11.525Z,11.50
2019-04-28T07:55:16.752Z,12.68
2019-04-28T07:56:22.114Z,11.10
2019-04-28T07:57:31.498Z,11.10
2019-04-28T07:58:36.721Z,5.40
2019-04-28T07:59:41.848Z,15.38
2019-04-28T08:00:48.810Z,7.08
2019-04-28T08:01:54.300Z,10.95
2019-04-28T08:02:59.334Z,7.65
2019-04-28T08:04:04.556Z,11.70
2019-04-28T08:05:10.099Z,13.78
2019-04-28T08:06:15.370Z,11.70
2019-04-28T08:07:20.507Z,11.90
2019-04-28T08:08:25.546Z,13.83
2019-04-28T08:09:30.657Z,12.47
2019-04-28T08:10:35.865Z,9.33
2019-04-28T08:11:41.042Z,6.75
2019-04-28T08:12:46.015Z,7.85
2019-04-28T08:13:51.741Z,20.50
2019-04-28T08:14:56.920Z,8.20
2019-04-28T08:16:02.097Z,12.10
2019-04-28T08:17:07.540Z,9.78
2019-04-28T08:18:12.972Z,13.03
2019-04-28T08:19:18.064Z,11.88
2019-04-28T08:20:23.129Z,15.60
2019-04-28T08:21:28.169Z,11.65
2019-04-28T08:22:33.197Z,9.58
2019-04-28T08:23:47.056Z,11.73
2019-04-28T08:24:45.829Z,8.75
2019-04-28T08:25:50.859Z,17.42
2019-04-28T08:26:55.906Z,12.47
2019-04-28T08:28:01.365Z,6.87
2019-04-28T08:29:06.448Z,11.80
2019-04-28T08:30:11.725Z,11.28
2019-04-28T08:31:18.450Z,15.28
2019-04-28T08:32:38.593Z,11.12
2019-04-28T08:34:02.199Z,5.72
2019-04-28T08:35:00.924Z,11.85
2019-04-28T08:36:06.104Z,6.65
2019-04-28T08:37:11.340Z,9.45
2019-04-28T08:38:16.725Z,7.25
2019-04-28T08:39:25.024Z,11.30
2019-04-28T08:40:28.584Z,9.95
2019-04-28T08:41:33.927Z,5.17
2019-04-28T08:42:39.204Z,7.70
2019-04-28T08:43:44.889Z,10.68
2019-04-28T08:44:49.918Z,7.30
2019-04-28T08:45:55.303Z,6.85
2019-04-28T08:47:00.442Z,11.57
2019-04-28T08:48:05.728Z,10.30
2019-04-28T08:49:10.914Z,10.70
2019-04-28T08:50:16.177Z,11.10
2019-04-28T08:51:21.593Z,9.60
2019-04-28T08:52:26.658Z,11.60
2019-04-28T08:53:31.820Z,11.48
2019-04-28T08:54:36.931Z,14.23
2019-04-28T08:55:42.545Z,7.80
2019-04-28T08:56:47.689Z,11.20
2019-04-28T08:57:52.787Z,10.28
2019-04-28T08:58:57.869Z,6.90
2019-04-28T09:00:03.135Z,7.58
2019-04-28T09:01:08.360Z,11.73
2019-04-28T09:02:13.852Z,10.18
2019-04-28T09:03:18.923Z,13.25
2019-04-28T09:04:24.290Z,11.73
2019-04-28T09:05:29.488Z,4.80
2019-04-28T09:06:34.570Z,8.28
2019-04-28T09:07:39.776Z,9.30
2019-04-28T09:08:44.949Z,5.75
2019-04-28T09:09:50.207Z,4.78
2019-04-28T09:10:55.391Z,6.58
2019-04-28T09:12:00.565Z,5.22
2019-04-28T09:13:05.707Z,5.35
2019-04-28T09:14:11.138Z,11.57
2019-04-28T09:15:16.437Z,5.70
2019-04-28T09:16:21.470Z,5.80
2019-04-28T09:17:26.648Z,6.60
2019-04-28T09:18:31.975Z,8.95
2019-04-28T09:19:37.032Z,9.05
2019-04-28T09:20:42.135Z,4.65
2019-04-28T09:21:47.928Z,5.58
2019-04-28T09:22:53.067Z,4.60
2019-04-28T09:23:58.146Z,7.45
2019-04-28T09:25:03.729Z,8.28
2019-04-28T09:26:09.100Z,6.37
2019-04-28T09:27:14.247Z,8.48
2019-04-28T09:28:19.368Z,6.33
2019-04-28T09:29:24.529Z,9.30
2019-04-28T09:30:30.018Z,6.15
2019-04-28T09:31:35.061Z,10.38
2019-04-28T09:32:40.267Z,9.20
2019-04-28T09:33:45.594Z,6.92
2019-04-28T09:34:51.069Z,6.40
2019-04-28T09:35:56.191Z,7.03
2019-04-28T09:37:01.346Z,7.62
2019-04-28T09:38:06.342Z,8.73
2019-04-28T09:39:13.068Z,9.93
2019-04-28T09:40:18.551Z,4.90
2019-04-28T09:41:23.642Z,4.97
2019-04-28T09:42:56.835Z,9.58
2019-04-28T09:44:11.620Z,7.12
2019-04-28T09:45:22.542Z,6.58
2019-04-28T09:46:30.594Z,4.25
2019-04-28T09:47:35.825Z,3.67
2019-04-28T09:48:41.090Z,6.10
2019-04-28T09:49:46.400Z,3.62
2019-04-28T09:50:51.873Z,4.97
2019-04-28T09:51:56.891Z,3.50
2019-04-28T09:53:01.897Z,6.53
2019-04-28T09:54:07.353Z,4.33
2019-04-28T09:55:12.574Z,7.20
2019-04-28T09:56:17.751Z,5.85
2019-04-28T09:57:22.932Z,6.37
2019-04-28T09:58:28.262Z,3.42
2019-04-28T09:59:33.444Z,2.83
2019-04-28T10:00:40.010Z,3.22
2019-04-28T10:01:45.276Z,3.52
2019-04-28T10:02:50.446Z,2.72
2019-04-28T10:03:55.609Z,3.33
2019-04-28T10:05:00.655Z,5.95
2019-04-28T10:06:06.394Z,3.42
2019-04-28T10:07:11.459Z,6.12
2019-04-28T10:08:16.787Z,3.47
2019-04-28T10:09:21.800Z,4.78
2019-04-28T10:10:27.191Z,5.00
2019-04-28T10:11:32.187Z,4.87
2019-04-28T10:12:37.212Z,2.45
2019-04-28T10:13:42.210Z,3.50
2019-04-28T10:14:47.397Z,2.10
2019-04-28T10:15:52.774Z,5.17
2019-04-28T10:16:57.967Z,4.67
2019-04-28T10:18:03.290Z,3.77
2019-04-28T10:19:08.296Z,6.00
2019-04-28T10:20:13.631Z,4.37
2019-04-28T10:21:19.011Z,3.15
2019-04-28T10:22:24.547Z,3.92
2019-04-28T10:23:29.725Z,5.35
2019-04-28T10:24:34.809Z,3.65
2019-04-28T10:25:39.917Z,3.20
2019-04-28T10:26:45.109Z,4.00
2019-04-28T10:27:50.230Z,4.80
2019-04-28T10:28:55.381Z,4.50
2019-04-28T10:30:00.787Z,3.35
2019-04-28T10:31:08.338Z,5.70
2019-04-28T10:32:13.940Z,5.10
2019-04-28T10:33:19.574Z,5.30
2019-04-28T10:34:24.720Z,6.50
2019-04-28T10:35:30.041Z,5.55
2019-04-28T10:36:36.729Z,4.03
2019-04-28T10:37:41.860Z,4.55
2019-04-28T10:38:48.533Z,4.67
2019-04-28T10:40:11.764Z,5.87
2019-04-28T10:41:23.524Z,5.30
2019-04-28T10:42:28.543Z,9.40
2019-04-28T10:43:33.927Z,5.65
2019-04-28T10:44:41.908Z,6.62
2019-04-28T10:45:48.531Z,7.40
2019-04-28T10:46:53.642Z,5.17
2019-04-28T10:47:59.325Z,5.90
2019-04-28T10:49:04.429Z,5.72
2019-04-28T10:50:09.841Z,5.10
2019-04-28T10:51:15.260Z,7.22
2019-04-28T10:52:20.496Z,5.42
2019-04-28T10:53:28.126Z,4.47
2019-04-28T10:54:33.544Z,5.78
2019-04-28T10:55:38.708Z,6.25
2019-04-28T10:56:44.165Z,10.05
2019-04-28T10:57:49.256Z,5.65
2019-04-28T10:58:57.166Z,5.12
2019-04-28T11:00:02.276Z,8.35
2019-04-28T11:01:07.564Z,3.77
2019-04-28T11:02:12.896Z,4.42
2019-04-28T11:03:17.973Z,4.47
2019-04-28T11:04:41.252Z,5.20
2019-04-28T11:05:46.844Z,5.28
2019-04-28T11:06:51.789Z,3.65
2019-04-28T11:07:57.542Z,6.58
2019-04-28T11:09:30.461Z,4.50
2019-04-28T11:10:28.938Z,3.58
2019-04-28T11:11:37.174Z,4.75
2019-04-28T11:12:42.317Z,4.35
2019-04-28T11:13:47.445Z,3.72
2019-04-28T11:14:52.541Z,4.65
2019-04-28T11:15:58.023Z,4.05
2019-04-28T11:17:03.159Z,4.20
2019-04-28T11:18:09.978Z,3.90
2019-04-28T11:19:15.327Z,6.10
2019-04-28T11:20:20.672Z,2.98
2019-04-28T11:21:25.980Z,4.22
2019-04-28T11:22:31.141Z,4.25
2019-04-28T11:23:36.377Z,3.50
2019-04-28T11:24:41.915Z,4.05
2019-04-28T11:25:46.989Z,4.05
2019-04-28T11:26:52.044Z,3.58
2019-04-28T11:27:57.297Z,5.92
2019-04-28T11:29:02.406Z,3.58
2019-04-28T11:30:07.927Z,4.20
2019-04-28T11:31:12.947Z,4.53
2019-04-28T11:32:18.074Z,3.55
2019-04-28T11:33:40.569Z,4.10
2019-04-28T11:34:54.573Z,3.70
2019-04-28T11:35:59.898Z,6.37
2019-04-28T11:37:05.143Z,3.87
2019-04-28T11:38:10.311Z,5.78
2019-04-28T11:39:19.928Z,5.00
2019-04-28T11:40:25.432Z,4.58
2019-04-28T11:41:31.016Z,5.87
2019-04-28T11:42:35.969Z,4.78
2019-04-28T11:43:41.101Z,4.50
2019-04-28T11:44:46.305Z,3.25
2019-04-28T11:45:51.750Z,3.42
2019-04-28T11:46:56.867Z,9.48
2019-04-28T11:48:01.944Z,4.55
2019-04-28T11:49:07.023Z,4.62
2019-04-28T11:50:12.198Z,3.85
2019-04-28T11:51:17.474Z,2.33
2019-04-28T11:52:22.717Z,4.70
2019-04-28T11:53:28.101Z,4.33
2019-04-28T11:54:33.743Z,8.18
2019-04-28T11:55:38.794Z,3.17
2019-04-28T11:56:44.048Z,3.37
2019-04-28T11:57:49.509Z,2.77
2019-04-28T11:58:54.536Z,2.70
2019-04-28T11:59:59.862Z,2.08
2019-04-28T12:01:05.448Z,2.67
2019-04-28T12:02:10.593Z,3.12
2019-04-28T12:03:15.715Z,4.35
2019-04-28T12:04:20.936Z,4.30
2019-04-28T12:05:34.559Z,3.33
2019-04-28T12:06:37.387Z,3.35
2019-04-28T12:07:42.484Z,3.98
2019-04-28T12:08:49.163Z,3.80
2019-04-28T12:10:06.262Z,3.55
2019-04-28T12:11:24.362Z,2.95
2019-04-28T12:12:47.643Z,4.22
2019-04-28T12:14:15.066Z,2.62
2019-04-28T12:15:38.011Z,2.95
2019-04-28T12:17:00.755Z,6.25
2019-04-28T12:18:23.039Z,3.92
2019-04-28T12:19:33.965Z,3.30
2019-04-28T12:20:39.306Z,4.05
2019-04-28T12:21:44.319Z,2.85
2019-04-28T12:22:49.334Z,3.65
2019-04-28T12:23:54.518Z,2.30
2019-04-28T12:24:59.692Z,2.62
2019-04-28T12:26:04.898Z,3.58
2019-04-28T12:27:09.947Z,3.10
2019-04-28T12:28:15.183Z,2.33
2019-04-28T12:29:20.423Z,2.50
2019-04-28T12:30:25.587Z,2.47
2019-04-28T12:31:30.834Z,2.33
2019-04-28T12:32:35.848Z,2.17
2019-04-28T12:33:40.956Z,2.85
2019-04-28T12:34:46.294Z,1.85
2019-04-28T12:35:51.351Z,1.55
2019-04-28T12:36:56.594Z,1.85
2019-04-28T12:38:01.723Z,2.05
2019-04-28T12:39:08.223Z,2.02
2019-04-28T12:40:13.339Z,1.90
2019-04-28T12:41:18.460Z,2.70
2019-04-28T12:42:23.620Z,2.95
2019-04-28T12:43:29.033Z,1.50
2019-04-28T12:44:34.333Z,3.80
2019-04-28T12:45:39.206Z,2.05
2019-04-28T12:46:44.321Z,1.70
2019-04-28T12:47:49.515Z,4.25
2019-04-28T12:48:57.515Z,6.10
2019-04-28T12:50:14.668Z,2.45
2019-04-28T12:51:19.716Z,2.95
2019-04-28T12:52:24.753Z,2.75
2019-04-28T12:53:29.845Z,4.00
2019-04-28T12:54:36.507Z,6.12
2019-04-28T12:55:42.148Z,2.47
2019-04-28T12:56:47.445Z,3.85
2019-04-28T12:57:53.038Z,2.30
2019-04-28T12:59:03.418Z,2.87
2019-04-28T13:00:39.874Z,4.20
2019-04-28T13:01:51.986Z,3.60
2019-04-28T13:03:22.118Z,3.05
2019-04-28T13:04:31.860Z,6.15
2019-04-28T13:05:37.944Z,2.85
2019-04-28T13:06:44.586Z,3.20
2019-04-28T13:07:49.924Z,3.87
2019-04-28T13:08:54.906Z,2.47
2019-04-28T13:10:00.098Z,1.52
2019-04-28T13:11:05.218Z,1.80
2019-04-28T13:12:10.612Z,1.60
2019-04-28T13:13:15.836Z,2.10
2019-04-28T13:14:20.940Z,2.30
2019-04-28T13:15:26.114Z,2.20
2019-04-28T13:16:31.203Z,1.70
2019-04-28T13:17:36.338Z,2.35
2019-04-28T13:18:41.695Z,2.00
2019-04-28T13:19:46.991Z,1.85
2019-04-28T13:20:52.243Z,1.82
2019-04-28T13:22:00.464Z,4.10
2019-04-28T13:23:05.551Z,2.35
2019-04-28T13:24:10.583Z,3.05
2019-04-28T13:25:15.967Z,1.95
2019-04-28T13:26:21.217Z,1.92
2019-04-28T13:27:26.454Z,2.60
2019-04-28T13:28:33.372Z,2.33
2019-04-28T13:29:38.315Z,2.17
2019-04-28T13:30:45.352Z,2.17
2019-04-28T13:31:50.482Z,2.37
2019-04-28T13:32:55.586Z,2.22
2019-04-28T13:34:01.517Z,2.87
2019-04-28T13:35:07.132Z,3.05
2019-04-28T13:36:15.082Z,1.87
2019-04-28T13:37:19.911Z,3.33
2019-04-28T13:38:25.427Z,2.17
2019-04-28T13:39:35.794Z,3.22
2019-04-28T13:40:41.578Z,2.67
2019-04-28T13:41:46.851Z,1.47
2019-04-28T13:42:52.157Z,1.90
2019-04-28T13:44:04.594Z,3.20
2019-04-28T13:45:16.199Z,2.65
2019-04-28T13:46:24.645Z,1.60
2019-04-28T13:47:29.901Z,1.70
2019-04-28T13:48:35.503Z,1.70
2019-04-28T13:49:51.963Z,3.72
2019-04-28T13:50:57.448Z,1.80
2019-04-28T13:52:02.846Z,2.47
2019-04-28T13:53:08.433Z,1.80
2019-04-28T13:54:15.361Z,2.17
2019-04-28T13:55:57.759Z,2.27
2019-04-28T13:57:02.971Z,10.08
2019-04-28T13:58:08.107Z,6.90
2019-04-28T13:59:17.605Z,3.85
2019-04-28T14:00:29.487Z,2.37
2019-04-28T14:01:56.329Z,1.90
2019-04-28T14:03:13.616Z,2.40
2019-04-28T14:04:36.399Z,2.85
2019-04-28T14:05:51.886Z,2.22
2019-04-28T14:07:01.786Z,3.40
2019-04-28T14:08:06.941Z,4.10
2019-04-28T14:09:16.736Z,2.67
2019-04-28T14:10:21.892Z,2.30
2019-04-28T14:11:27.149Z,2.40
2019-04-28T14:12:32.499Z,2.83
2019-04-28T14:13:37.566Z,2.50
2019-04-28T14:14:42.654Z,4.35
2019-04-28T14:15:48.511Z,3.52
2019-04-28T14:16:53.696Z,3.00
2019-04-28T14:17:59.100Z,2.60
2019-04-28T14:19:04.403Z,3.22
2019-04-28T14:20:12.119Z,3.17
2019-04-28T14:21:17.321Z,3.05
2019-04-28T14:22:22.473Z,2.72
2019-04-28T14:23:27.927Z,2.62
2019-04-28T14:24:33.188Z,2.35
2019-04-28T14:25:38.241Z,3.47
2019-04-28T14:26:43.499Z,2.30
2019-04-28T14:27:49.044Z,2.70
2019-04-28T14:28:54.996Z,2.98
2019-04-28T14:30:00.178Z,2.60
2019-04-28T14:31:05.320Z,4.80
2019-04-28T14:32:10.408Z,2.55
2019-04-28T14:33:16.665Z,2.30
2019-04-28T14:34:22.063Z,2.42
2019-04-28T14:35:27.198Z,2.52
2019-04-28T14:36:41.791Z,2.12
2019-04-28T14:37:39.362Z,3.33